sensor_id;sensor_type;location;lat;lon;timestamp;P1;durP1;ratioP1;P2;durP2;ratioP2
11791;SDS011;5953;52.372;9.918;2024-01-10T00:02:19;12.80;;;6.70;;
11791;SDS011;5953;52.372;9.918;2024-01-10T00:04:47;10.43;;;5.97;;
11791;SDS011;5953;52.372;9.918;2024-01-10T00:07:15;9.53;;;5.37;;
11791;SDS011;5953;52.372;9.918;2024-01-10T00:09:43;7.27;;;4.17;;
11791;SDS011;5953;52.372;9.918;2024-01-10T00:12:13;9.77;;;5.23;;
11791;SDS011;5953;52.372;9.918;2024-01-10T00:14:41;12.30;;;5.87;;
11791;SDS011;5953;52.372;9.918;2024-01-10T00:17:09;15.53;;;6.73;;
11791;SDS011;5953;52.372;9.918;2024-01-10T00:19:37;12.50;;;5.93;;
11791;SDS011;5953;52.372;9.918;2024-01-10T00:22:05;12.27;;;5.70;;
11791;SDS011;5953;52.372;9.918;2024-01-10T00:24:32;11.07;;;5.70;;
11791;SDS011;5953;52.372;9.918;2024-01-10T00:27:00;13.70;;;6.87;;
11791;SDS011;5953;52.372;9.918;2024-01-10T00:29:29;7.93;;;4.07;;
11791;SDS011;5953;52.372;9.918;2024-01-10T00:31:57;11.23;;;5.90;;
11791;SDS011;5953;52.372;9.918;2024-01-10T00:34:26;12.00;;;6.17;;
11791;SDS011;5953;52.372;9.918;2024-01-10T00:36:54;8.47;;;4.43;;
11791;SDS011;5953;52.372;9.918;2024-01-10T00:39:22;9.83;;;5.67;;
11791;SDS011;5953;52.372;9.918;2024-01-10T00:41:49;9.43;;;5.27;;
11791;SDS011;5953;52.372;9.918;2024-01-10T00:44:18;9.23;;;5.07;;
11791;SDS011;5953;52.372;9.918;2024-01-10T00:46:48;8.63;;;5.07;;
11791;SDS011;5953;52.372;9.918;2024-01-10T00:49:15;8.97;;;6.07;;
11791;SDS011;5953;52.372;9.918;2024-01-10T00:51:43;7.00;;;4.50;;
11791;SDS011;5953;52.372;9.918;2024-01-10T00:54:11;11.13;;;5.77;;
11791;SDS011;5953;52.372;9.918;2024-01-10T00:56:39;8.07;;;4.73;;
11791;SDS011;5953;52.372;9.918;2024-01-10T00:59:07;13.70;;;5.73;;
11791;SDS011;5953;52.372;9.918;2024-01-10T01:01:35;6.50;;;4.27;;
11791;SDS011;5953;52.372;9.918;2024-01-10T01:04:04;12.57;;;5.40;;
11791;SDS011;5953;52.372;9.918;2024-01-10T01:06:32;10.07;;;5.57;;
11791;SDS011;5953;52.372;9.918;2024-01-10T01:09:00;8.93;;;5.07;;
11791;SDS011;5953;52.372;9.918;2024-01-10T01:11:28;9.13;;;4.37;;
11791;SDS011;5953;52.372;9.918;2024-01-10T01:13:56;7.43;;;4.60;;
11791;SDS011;5953;52.372;9.918;2024-01-10T01:16:24;12.80;;;5.83;;
11791;SDS011;5953;52.372;9.918;2024-01-10T01:18:52;8.20;;;4.17;;
11791;SDS011;5953;52.372;9.918;2024-01-10T01:21:21;12.37;;;5.83;;
11791;SDS011;5953;52.372;9.918;2024-01-10T01:23:49;4.70;;;2.93;;
11791;SDS011;5953;52.372;9.918;2024-01-10T01:26:16;7.37;;;4.40;;
11791;SDS011;5953;52.372;9.918;2024-01-10T01:28:44;4.73;;;2.60;;
11791;SDS011;5953;52.372;9.918;2024-01-10T01:31:12;10.77;;;4.97;;
11791;SDS011;5953;52.372;9.918;2024-01-10T01:33:40;12.83;;;6.33;;
11791;SDS011;5953;52.372;9.918;2024-01-10T01:36:08;10.00;;;5.63;;
11791;SDS011;5953;52.372;9.918;2024-01-10T01:38:37;12.30;;;6.03;;
11791;SDS011;5953;52.372;9.918;2024-01-10T01:41:05;12.13;;;6.77;;
11791;SDS011;5953;52.372;9.918;2024-01-10T01:43:33;10.87;;;5.83;;
11791;SDS011;5953;52.372;9.918;2024-01-10T01:46:01;10.07;;;5.13;;
11791;SDS011;5953;52.372;9.918;2024-01-10T01:48:30;12.40;;;5.60;;
11791;SDS011;5953;52.372;9.918;2024-01-10T01:50:59;15.37;;;6.90;;
11791;SDS011;5953;52.372;9.918;2024-01-10T01:53:29;8.20;;;4.73;;
11791;SDS011;5953;52.372;9.918;2024-01-10T01:55:59;8.63;;;4.27;;
11791;SDS011;5953;52.372;9.918;2024-01-10T01:58:30;11.97;;;5.37;;
11791;SDS011;5953;52.372;9.918;2024-01-10T02:00:59;13.27;;;7.23;;
11791;SDS011;5953;52.372;9.918;2024-01-10T02:03:28;17.73;;;5.97;;
11791;SDS011;5953;52.372;9.918;2024-01-10T02:05:57;9.30;;;5.00;;
11791;SDS011;5953;52.372;9.918;2024-01-10T02:08:25;12.10;;;5.73;;
11791;SDS011;5953;52.372;9.918;2024-01-10T02:10:53;10.53;;;5.77;;
11791;SDS011;5953;52.372;9.918;2024-01-10T02:13:22;10.70;;;7.20;;
11791;SDS011;5953;52.372;9.918;2024-01-10T02:15:50;11.63;;;6.07;;
11791;SDS011;5953;52.372;9.918;2024-01-10T02:18:19;19.60;;;6.77;;
11791;SDS011;5953;52.372;9.918;2024-01-10T02:20:47;10.47;;;6.47;;
11791;SDS011;5953;52.372;9.918;2024-01-10T02:23:14;12.87;;;6.10;;
11791;SDS011;5953;52.372;9.918;2024-01-10T02:25:44;7.07;;;5.37;;
11791;SDS011;5953;52.372;9.918;2024-01-10T02:28:12;11.90;;;6.70;;
11791;SDS011;5953;52.372;9.918;2024-01-10T02:30:40;10.60;;;5.57;;
11791;SDS011;5953;52.372;9.918;2024-01-10T02:33:08;11.03;;;6.40;;
11791;SDS011;5953;52.372;9.918;2024-01-10T02:35:36;9.70;;;6.83;;
11791;SDS011;5953;52.372;9.918;2024-01-10T02:38:03;10.83;;;6.00;;
11791;SDS011;5953;52.372;9.918;2024-01-10T02:40:31;11.43;;;6.40;;
11791;SDS011;5953;52.372;9.918;2024-01-10T02:43:01;9.37;;;5.60;;
11791;SDS011;5953;52.372;9.918;2024-01-10T02:45:29;11.00;;;6.73;;
11791;SDS011;5953;52.372;9.918;2024-01-10T02:47:56;14.77;;;6.03;;
11791;SDS011;5953;52.372;9.918;2024-01-10T02:50:24;11.20;;;6.13;;
11791;SDS011;5953;52.372;9.918;2024-01-10T02:52:52;13.50;;;6.73;;
11791;SDS011;5953;52.372;9.918;2024-01-10T02:55:23;12.40;;;6.50;;
11791;SDS011;5953;52.372;9.918;2024-01-10T02:57:51;9.17;;;4.10;;
11791;SDS011;5953;52.372;9.918;2024-01-10T03:00:20;9.03;;;5.97;;
11791;SDS011;5953;52.372;9.918;2024-01-10T03:02:48;5.20;;;3.70;;
11791;SDS011;5953;52.372;9.918;2024-01-10T03:05:16;6.37;;;3.13;;
11791;SDS011;5953;52.372;9.918;2024-01-10T03:07:44;5.90;;;4.40;;
11791;SDS011;5953;52.372;9.918;2024-01-10T03:10:12;9.40;;;4.07;;
11791;SDS011;5953;52.372;9.918;2024-01-10T03:12:40;8.43;;;5.03;;
11791;SDS011;5953;52.372;9.918;2024-01-10T03:15:08;15.00;;;6.87;;
11791;SDS011;5953;52.372;9.918;2024-01-10T03:17:38;11.23;;;6.23;;
11791;SDS011;5953;52.372;9.918;2024-01-10T03:20:06;14.17;;;5.40;;
11791;SDS011;5953;52.372;9.918;2024-01-10T03:22:36;14.67;;;7.40;;
11791;SDS011;5953;52.372;9.918;2024-01-10T03:25:05;12.93;;;8.20;;
11791;SDS011;5953;52.372;9.918;2024-01-10T03:27:33;10.53;;;6.70;;
11791;SDS011;5953;52.372;9.918;2024-01-10T03:30:00;14.77;;;7.83;;
11791;SDS011;5953;52.372;9.918;2024-01-10T03:32:28;11.53;;;6.67;;
11791;SDS011;5953;52.372;9.918;2024-01-10T03:34:57;17.00;;;8.17;;
11791;SDS011;5953;52.372;9.918;2024-01-10T03:37:28;11.93;;;5.93;;
11791;SDS011;5953;52.372;9.918;2024-01-10T03:39:55;14.93;;;8.37;;
11791;SDS011;5953;52.372;9.918;2024-01-10T03:42:25;17.40;;;8.93;;
11791;SDS011;5953;52.372;9.918;2024-01-10T03:44:53;8.23;;;4.97;;
11791;SDS011;5953;52.372;9.918;2024-01-10T03:47:21;17.30;;;8.83;;
11791;SDS011;5953;52.372;9.918;2024-01-10T03:49:49;18.43;;;9.60;;
11791;SDS011;5953;52.372;9.918;2024-01-10T03:52:18;11.53;;;6.43;;
11791;SDS011;5953;52.372;9.918;2024-01-10T03:54:46;31.37;;;9.80;;
11791;SDS011;5953;52.372;9.918;2024-01-10T03:57:14;20.27;;;8.77;;
11791;SDS011;5953;52.372;9.918;2024-01-10T03:59:42;14.40;;;7.53;;
11791;SDS011;5953;52.372;9.918;2024-01-10T04:02:09;21.63;;;8.87;;
11791;SDS011;5953;52.372;9.918;2024-01-10T04:04:37;18.13;;;10.53;;
11791;SDS011;5953;52.372;9.918;2024-01-10T04:07:06;10.77;;;5.67;;
11791;SDS011;5953;52.372;9.918;2024-01-10T04:09:36;17.83;;;9.70;;
11791;SDS011;5953;52.372;9.918;2024-01-10T04:12:04;15.00;;;7.83;;
11791;SDS011;5953;52.372;9.918;2024-01-10T04:14:32;9.73;;;5.07;;
11791;SDS011;5953;52.372;9.918;2024-01-10T04:17:00;10.67;;;5.90;;
11791;SDS011;5953;52.372;9.918;2024-01-10T04:19:29;19.93;;;10.37;;
11791;SDS011;5953;52.372;9.918;2024-01-10T04:21:57;19.37;;;10.20;;
11791;SDS011;5953;52.372;9.918;2024-01-10T04:24:25;21.97;;;11.13;;
11791;SDS011;5953;52.372;9.918;2024-01-10T04:26:54;13.37;;;8.00;;
11791;SDS011;5953;52.372;9.918;2024-01-10T04:29:22;22.00;;;10.97;;
11791;SDS011;5953;52.372;9.918;2024-01-10T04:31:50;21.13;;;10.73;;
11791;SDS011;5953;52.372;9.918;2024-01-10T04:34:17;24.33;;;10.70;;
11791;SDS011;5953;52.372;9.918;2024-01-10T04:36:45;23.10;;;10.80;;
11791;SDS011;5953;52.372;9.918;2024-01-10T04:39:13;21.87;;;11.10;;
11791;SDS011;5953;52.372;9.918;2024-01-10T04:41:41;16.97;;;10.33;;
11791;SDS011;5953;52.372;9.918;2024-01-10T04:44:10;16.27;;;5.47;;
11791;SDS011;5953;52.372;9.918;2024-01-10T04:46:38;17.73;;;10.13;;
11791;SDS011;5953;52.372;9.918;2024-01-10T04:49:07;11.13;;;5.83;;
11791;SDS011;5953;52.372;9.918;2024-01-10T04:51:35;19.17;;;10.47;;
11791;SDS011;5953;52.372;9.918;2024-01-10T04:54:03;21.77;;;11.77;;
11791;SDS011;5953;52.372;9.918;2024-01-10T04:56:31;23.53;;;11.03;;
11791;SDS011;5953;52.372;9.918;2024-01-10T04:58:59;20.73;;;9.63;;
11791;SDS011;5953;52.372;9.918;2024-01-10T05:01:29;18.67;;;9.97;;
11791;SDS011;5953;52.372;9.918;2024-01-10T05:03:57;23.60;;;10.50;;
11791;SDS011;5953;52.372;9.918;2024-01-10T05:06:25;18.73;;;10.53;;
11791;SDS011;5953;52.372;9.918;2024-01-10T05:08:54;18.47;;;8.30;;
11791;SDS011;5953;52.372;9.918;2024-01-10T05:11:24;16.63;;;8.93;;
11791;SDS011;5953;52.372;9.918;2024-01-10T05:13:53;20.63;;;10.03;;
11791;SDS011;5953;52.372;9.918;2024-01-10T05:16:21;23.07;;;11.50;;
11791;SDS011;5953;52.372;9.918;2024-01-10T05:18:50;26.00;;;11.73;;
11791;SDS011;5953;52.372;9.918;2024-01-10T05:21:18;22.70;;;10.30;;
11791;SDS011;5953;52.372;9.918;2024-01-10T05:23:46;17.50;;;8.40;;
11791;SDS011;5953;52.372;9.918;2024-01-10T05:26:15;18.63;;;9.43;;
11791;SDS011;5953;52.372;9.918;2024-01-10T05:28:43;9.23;;;4.97;;
11791;SDS011;5953;52.372;9.918;2024-01-10T05:31:11;19.27;;;10.80;;
11791;SDS011;5953;52.372;9.918;2024-01-10T05:33:39;21.23;;;9.27;;
11791;SDS011;5953;52.372;9.918;2024-01-10T05:36:10;22.77;;;10.47;;
11791;SDS011;5953;52.372;9.918;2024-01-10T05:38:39;24.20;;;13.33;;
11791;SDS011;5953;52.372;9.918;2024-01-10T05:41:07;23.23;;;12.03;;
11791;SDS011;5953;52.372;9.918;2024-01-10T05:43:35;25.87;;;11.90;;
11791;SDS011;5953;52.372;9.918;2024-01-10T05:46:03;10.57;;;5.50;;
11791;SDS011;5953;52.372;9.918;2024-01-10T05:48:31;20.80;;;11.27;;
11791;SDS011;5953;52.372;9.918;2024-01-10T05:51:00;23.00;;;10.10;;
11791;SDS011;5953;52.372;9.918;2024-01-10T05:53:30;20.23;;;10.57;;
11791;SDS011;5953;52.372;9.918;2024-01-10T05:55:59;21.73;;;12.07;;
11791;SDS011;5953;52.372;9.918;2024-01-10T05:58:27;24.17;;;10.83;;
11791;SDS011;5953;52.372;9.918;2024-01-10T06:00:55;24.50;;;12.17;;
11791;SDS011;5953;52.372;9.918;2024-01-10T06:03:23;23.10;;;12.30;;
11791;SDS011;5953;52.372;9.918;2024-01-10T06:05:51;25.93;;;12.80;;
11791;SDS011;5953;52.372;9.918;2024-01-10T06:08:19;22.17;;;10.57;;
11791;SDS011;5953;52.372;9.918;2024-01-10T06:10:51;29.37;;;13.33;;
11791;SDS011;5953;52.372;9.918;2024-01-10T06:13:19;27.77;;;13.20;;
11791;SDS011;5953;52.372;9.918;2024-01-10T06:15:47;23.53;;;11.57;;
11791;SDS011;5953;52.372;9.918;2024-01-10T06:18:14;22.40;;;11.93;;
11791;SDS011;5953;52.372;9.918;2024-01-10T06:20:42;23.03;;;12.37;;
11791;SDS011;5953;52.372;9.918;2024-01-10T06:23:10;22.50;;;12.23;;
11791;SDS011;5953;52.372;9.918;2024-01-10T06:25:38;23.83;;;13.20;;
11791;SDS011;5953;52.372;9.918;2024-01-10T06:28:07;21.60;;;11.47;;
11791;SDS011;5953;52.372;9.918;2024-01-10T06:30:35;24.00;;;11.50;;
11791;SDS011;5953;52.372;9.918;2024-01-10T06:33:03;22.47;;;10.93;;
11791;SDS011;5953;52.372;9.918;2024-01-10T06:35:33;26.80;;;12.30;;
11791;SDS011;5953;52.372;9.918;2024-01-10T06:38:01;20.47;;;11.57;;
11791;SDS011;5953;52.372;9.918;2024-01-10T06:40:30;24.13;;;11.27;;
11791;SDS011;5953;52.372;9.918;2024-01-10T06:42:58;21.33;;;11.63;;
11791;SDS011;5953;52.372;9.918;2024-01-10T06:45:27;20.70;;;11.67;;
11791;SDS011;5953;52.372;9.918;2024-01-10T06:47:55;24.80;;;12.17;;
11791;SDS011;5953;52.372;9.918;2024-01-10T06:50:23;21.73;;;12.53;;
11791;SDS011;5953;52.372;9.918;2024-01-10T06:52:51;22.30;;;12.03;;
11791;SDS011;5953;52.372;9.918;2024-01-10T06:55:19;21.57;;;11.67;;
11791;SDS011;5953;52.372;9.918;2024-01-10T06:57:48;24.03;;;11.33;;
11791;SDS011;5953;52.372;9.918;2024-01-10T07:00:19;12.70;;;6.20;;
11791;SDS011;5953;52.372;9.918;2024-01-10T07:02:50;20.10;;;11.20;;
11791;SDS011;5953;52.372;9.918;2024-01-10T07:05:18;22.63;;;12.37;;
11791;SDS011;5953;52.372;9.918;2024-01-10T07:07:46;24.10;;;11.80;;
11791;SDS011;5953;52.372;9.918;2024-01-10T07:10:16;25.33;;;11.43;;
11791;SDS011;5953;52.372;9.918;2024-01-10T07:12:45;13.37;;;7.27;;
11791;SDS011;5953;52.372;9.918;2024-01-10T07:15:13;25.87;;;13.13;;
11791;SDS011;5953;52.372;9.918;2024-01-10T07:17:41;26.77;;;13.20;;
11791;SDS011;5953;52.372;9.918;2024-01-10T07:20:11;24.90;;;13.57;;
11791;SDS011;5953;52.372;9.918;2024-01-10T07:22:39;25.30;;;14.47;;
11791;SDS011;5953;52.372;9.918;2024-01-10T07:25:10;22.77;;;10.63;;
11791;SDS011;5953;52.372;9.918;2024-01-10T07:27:40;20.50;;;11.93;;
11791;SDS011;5953;52.372;9.918;2024-01-10T07:30:09;18.10;;;11.10;;
11791;SDS011;5953;52.372;9.918;2024-01-10T07:32:40;20.43;;;12.40;;
11791;SDS011;5953;52.372;9.918;2024-01-10T07:35:09;27.43;;;11.47;;
11791;SDS011;5953;52.372;9.918;2024-01-10T07:37:39;23.87;;;12.90;;
11791;SDS011;5953;52.372;9.918;2024-01-10T07:40:08;20.77;;;12.53;;
11791;SDS011;5953;52.372;9.918;2024-01-10T07:42:37;23.60;;;11.73;;
11791;SDS011;5953;52.372;9.918;2024-01-10T07:45:06;27.90;;;13.43;;
11791;SDS011;5953;52.372;9.918;2024-01-10T07:47:35;24.93;;;12.80;;
11791;SDS011;5953;52.372;9.918;2024-01-10T07:50:04;24.80;;;13.13;;
11791;SDS011;5953;52.372;9.918;2024-01-10T07:52:33;25.47;;;12.07;;
11791;SDS011;5953;52.372;9.918;2024-01-10T07:55:03;29.53;;;13.80;;
11791;SDS011;5953;52.372;9.918;2024-01-10T07:57:33;25.00;;;13.00;;
11791;SDS011;5953;52.372;9.918;2024-01-10T08:00:01;24.40;;;12.20;;
11791;SDS011;5953;52.372;9.918;2024-01-10T08:02:30;25.27;;;12.93;;
11791;SDS011;5953;52.372;9.918;2024-01-10T08:05:00;17.33;;;8.53;;
11791;SDS011;5953;52.372;9.918;2024-01-10T08:07:31;23.47;;;13.20;;
11791;SDS011;5953;52.372;9.918;2024-01-10T08:10:00;25.83;;;14.23;;
11791;SDS011;5953;52.372;9.918;2024-01-10T08:12:30;29.47;;;14.10;;
11791;SDS011;5953;52.372;9.918;2024-01-10T08:14:58;27.87;;;13.37;;
11791;SDS011;5953;52.372;9.918;2024-01-10T08:17:26;26.23;;;13.00;;
11791;SDS011;5953;52.372;9.918;2024-01-10T08:19:54;27.63;;;12.90;;
11791;SDS011;5953;52.372;9.918;2024-01-10T08:22:21;27.40;;;13.60;;
11791;SDS011;5953;52.372;9.918;2024-01-10T08:24:52;25.60;;;13.50;;
11791;SDS011;5953;52.372;9.918;2024-01-10T08:27:20;24.03;;;12.80;;
11791;SDS011;5953;52.372;9.918;2024-01-10T08:29:49;25.10;;;13.43;;
11791;SDS011;5953;52.372;9.918;2024-01-10T08:32:17;27.77;;;13.57;;
11791;SDS011;5953;52.372;9.918;2024-01-10T08:34:48;27.07;;;14.17;;
11791;SDS011;5953;52.372;9.918;2024-01-10T08:37:16;23.53;;;12.53;;
11791;SDS011;5953;52.372;9.918;2024-01-10T08:39:44;25.77;;;13.37;;
11791;SDS011;5953;52.372;9.918;2024-01-10T08:42:12;26.47;;;12.17;;
11791;SDS011;5953;52.372;9.918;2024-01-10T08:44:40;21.57;;;9.83;;
11791;SDS011;5953;52.372;9.918;2024-01-10T08:47:09;31.37;;;14.57;;
11791;SDS011;5953;52.372;9.918;2024-01-10T08:49:37;21.53;;;12.60;;
11791;SDS011;5953;52.372;9.918;2024-01-10T08:52:05;26.23;;;14.03;;
11791;SDS011;5953;52.372;9.918;2024-01-10T08:54:35;26.40;;;14.47;;
11791;SDS011;5953;52.372;9.918;2024-01-10T08:57:03;20.10;;;9.67;;
11791;SDS011;5953;52.372;9.918;2024-01-10T08:59:31;28.13;;;14.90;;
11791;SDS011;5953;52.372;9.918;2024-01-10T09:01:59;29.10;;;15.30;;
11791;SDS011;5953;52.372;9.918;2024-01-10T09:04:32;17.47;;;8.10;;
11791;SDS011;5953;52.372;9.918;2024-01-10T09:07:03;29.40;;;14.77;;
11791;SDS011;5953;52.372;9.918;2024-01-10T09:09:31;27.97;;;15.00;;
11791;SDS011;5953;52.372;9.918;2024-01-10T09:11:59;28.73;;;15.30;;
11791;SDS011;5953;52.372;9.918;2024-01-10T09:14:30;20.37;;;11.07;;
11791;SDS011;5953;52.372;9.918;2024-01-10T09:16:58;27.27;;;12.70;;
11791;SDS011;5953;52.372;9.918;2024-01-10T09:19:30;27.53;;;12.57;;
11791;SDS011;5953;52.372;9.918;2024-01-10T09:21:58;12.73;;;8.33;;
11791;SDS011;5953;52.372;9.918;2024-01-10T09:24:26;18.40;;;8.23;;
11791;SDS011;5953;52.372;9.918;2024-01-10T09:26:55;34.73;;;16.77;;
11791;SDS011;5953;52.372;9.918;2024-01-10T09:29:23;30.23;;;17.73;;
11791;SDS011;5953;52.372;9.918;2024-01-10T09:31:52;14.30;;;7.23;;
11791;SDS011;5953;52.372;9.918;2024-01-10T09:34:21;30.07;;;15.63;;
11791;SDS011;5953;52.372;9.918;2024-01-10T09:36:50;24.90;;;12.63;;
11791;SDS011;5953;52.372;9.918;2024-01-10T09:39:19;35.87;;;18.20;;
11791;SDS011;5953;52.372;9.918;2024-01-10T09:41:47;31.33;;;17.53;;
11791;SDS011;5953;52.372;9.918;2024-01-10T09:44:17;25.03;;;12.47;;
11791;SDS011;5953;52.372;9.918;2024-01-10T09:46:48;28.87;;;13.57;;
11791;SDS011;5953;52.372;9.918;2024-01-10T09:49:19;31.93;;;17.30;;
11791;SDS011;5953;52.372;9.918;2024-01-10T09:51:49;35.00;;;17.20;;
11791;SDS011;5953;52.372;9.918;2024-01-10T09:54:20;38.17;;;19.73;;
11791;SDS011;5953;52.372;9.918;2024-01-10T09:56:51;32.03;;;16.63;;
11791;SDS011;5953;52.372;9.918;2024-01-10T09:59:19;26.80;;;13.37;;
11791;SDS011;5953;52.372;9.918;2024-01-10T10:01:47;35.33;;;17.27;;
11791;SDS011;5953;52.372;9.918;2024-01-10T10:04:15;27.03;;;12.53;;
11791;SDS011;5953;52.372;9.918;2024-01-10T10:06:45;28.70;;;13.63;;
11791;SDS011;5953;52.372;9.918;2024-01-10T10:09:14;30.97;;;17.47;;
11791;SDS011;5953;52.372;9.918;2024-01-10T10:11:44;31.90;;;17.40;;
11791;SDS011;5953;52.372;9.918;2024-01-10T10:14:20;35.37;;;18.37;;
11791;SDS011;5953;52.372;9.918;2024-01-10T10:16:49;34.33;;;19.10;;
11791;SDS011;5953;52.372;9.918;2024-01-10T10:19:22;36.07;;;17.33;;
11791;SDS011;5953;52.372;9.918;2024-01-10T10:22:07;31.30;;;16.83;;
11791;SDS011;5953;52.372;9.918;2024-01-10T10:24:37;35.27;;;18.73;;
11791;SDS011;5953;52.372;9.918;2024-01-10T10:27:07;30.50;;;13.30;;
11791;SDS011;5953;52.372;9.918;2024-01-10T10:29:36;25.07;;;14.53;;
11791;SDS011;5953;52.372;9.918;2024-01-10T10:32:06;32.23;;;19.30;;
11791;SDS011;5953;52.372;9.918;2024-01-10T10:34:35;32.47;;;15.23;;
11791;SDS011;5953;52.372;9.918;2024-01-10T10:37:03;29.60;;;16.57;;
11791;SDS011;5953;52.372;9.918;2024-01-10T10:39:31;32.00;;;16.87;;
11791;SDS011;5953;52.372;9.918;2024-01-10T10:42:00;36.23;;;17.50;;
11791;SDS011;5953;52.372;9.918;2024-01-10T10:44:29;36.37;;;18.87;;
11791;SDS011;5953;52.372;9.918;2024-01-10T10:47:04;33.57;;;19.30;;
11791;SDS011;5953;52.372;9.918;2024-01-10T10:49:40;35.80;;;15.47;;
11791;SDS011;5953;52.372;9.918;2024-01-10T10:52:14;28.47;;;12.70;;
11791;SDS011;5953;52.372;9.918;2024-01-10T10:54:43;31.60;;;16.93;;
11791;SDS011;5953;52.372;9.918;2024-01-10T10:57:15;27.00;;;15.20;;
11791;SDS011;5953;52.372;9.918;2024-01-10T10:59:45;32.67;;;16.53;;
11791;SDS011;5953;52.372;9.918;2024-01-10T11:02:14;22.37;;;8.97;;
11791;SDS011;5953;52.372;9.918;2024-01-10T11:04:49;28.23;;;15.50;;
11791;SDS011;5953;52.372;9.918;2024-01-10T11:07:17;18.30;;;9.53;;
11791;SDS011;5953;52.372;9.918;2024-01-10T11:09:46;28.27;;;12.60;;
11791;SDS011;5953;52.372;9.918;2024-01-10T11:12:24;23.67;;;14.47;;
11791;SDS011;5953;52.372;9.918;2024-01-10T11:15:05;16.27;;;9.40;;
11791;SDS011;5953;52.372;9.918;2024-01-10T11:17:59;35.37;;;18.50;;
11791;SDS011;5953;52.372;9.918;2024-01-10T11:20:51;12.00;;;6.60;;
11791;SDS011;5953;52.372;9.918;2024-01-10T11:23:35;15.47;;;8.17;;
11791;SDS011;5953;52.372;9.918;2024-01-10T11:26:07;29.30;;;17.63;;
11791;SDS011;5953;52.372;9.918;2024-01-10T11:28:37;33.80;;;17.03;;
11791;SDS011;5953;52.372;9.918;2024-01-10T11:31:05;29.60;;;15.57;;
11791;SDS011;5953;52.372;9.918;2024-01-10T11:33:35;33.63;;;17.63;;
11791;SDS011;5953;52.372;9.918;2024-01-10T11:36:09;34.70;;;18.83;;
11791;SDS011;5953;52.372;9.918;2024-01-10T11:38:43;33.53;;;18.20;;
11791;SDS011;5953;52.372;9.918;2024-01-10T11:41:19;28.87;;;13.77;;
11791;SDS011;5953;52.372;9.918;2024-01-10T11:46:52;27.93;;;13.67;;
11791;SDS011;5953;52.372;9.918;2024-01-10T11:49:21;30.60;;;14.83;;
11791;SDS011;5953;52.372;9.918;2024-01-10T11:51:52;29.60;;;15.67;;
11791;SDS011;5953;52.372;9.918;2024-01-10T11:54:35;19.50;;;9.53;;
11791;SDS011;5953;52.372;9.918;2024-01-10T11:57:07;27.30;;;14.63;;
11791;SDS011;5953;52.372;9.918;2024-01-10T11:59:36;17.50;;;10.07;;
11791;SDS011;5953;52.372;9.918;2024-01-10T12:02:08;27.70;;;15.40;;
11791;SDS011;5953;52.372;9.918;2024-01-10T12:04:35;25.97;;;11.93;;
11791;SDS011;5953;52.372;9.918;2024-01-10T12:07:13;21.60;;;10.10;;
11791;SDS011;5953;52.372;9.918;2024-01-10T12:09:42;25.90;;;13.70;;
11791;SDS011;5953;52.372;9.918;2024-01-10T12:12:10;22.43;;;11.07;;
11791;SDS011;5953;52.372;9.918;2024-01-10T12:14:40;24.37;;;13.50;;
11791;SDS011;5953;52.372;9.918;2024-01-10T12:17:11;25.53;;;12.63;;
11791;SDS011;5953;52.372;9.918;2024-01-10T12:19:39;25.90;;;14.87;;
11791;SDS011;5953;52.372;9.918;2024-01-10T12:22:11;22.27;;;11.70;;
11791;SDS011;5953;52.372;9.918;2024-01-10T12:24:42;24.63;;;11.87;;
11791;SDS011;5953;52.372;9.918;2024-01-10T12:27:11;20.87;;;10.73;;
11791;SDS011;5953;52.372;9.918;2024-01-10T12:29:39;30.80;;;14.63;;
11791;SDS011;5953;52.372;9.918;2024-01-10T12:32:07;26.87;;;13.60;;
11791;SDS011;5953;52.372;9.918;2024-01-10T12:34:38;34.37;;;15.97;;
11791;SDS011;5953;52.372;9.918;2024-01-10T12:37:07;27.57;;;14.33;;
11791;SDS011;5953;52.372;9.918;2024-01-10T12:39:38;25.60;;;11.90;;
11791;SDS011;5953;52.372;9.918;2024-01-10T12:42:06;26.13;;;13.53;;
11791;SDS011;5953;52.372;9.918;2024-01-10T12:44:34;26.77;;;11.97;;
11791;SDS011;5953;52.372;9.918;2024-01-10T12:47:02;22.43;;;11.67;;
11791;SDS011;5953;52.372;9.918;2024-01-10T12:49:31;28.27;;;14.00;;
11791;SDS011;5953;52.372;9.918;2024-01-10T12:52:00;32.17;;;16.07;;
11791;SDS011;5953;52.372;9.918;2024-01-10T12:54:34;26.23;;;14.67;;
11791;SDS011;5953;52.372;9.918;2024-01-10T12:57:02;21.63;;;11.70;;
11791;SDS011;5953;52.372;9.918;2024-01-10T12:59:30;35.60;;;16.93;;
11791;SDS011;5953;52.372;9.918;2024-01-10T13:01:58;30.63;;;17.53;;
11791;SDS011;5953;52.372;9.918;2024-01-10T13:04:26;31.53;;;17.60;;
11791;SDS011;5953;52.372;9.918;2024-01-10T13:06:55;33.00;;;18.33;;
11791;SDS011;5953;52.372;9.918;2024-01-10T13:09:24;33.30;;;12.67;;
11791;SDS011;5953;52.372;9.918;2024-01-10T13:11:52;28.47;;;15.47;;
11791;SDS011;5953;52.372;9.918;2024-01-10T13:14:20;23.33;;;13.37;;
11791;SDS011;5953;52.372;9.918;2024-01-10T13:16:48;25.33;;;16.40;;
11791;SDS011;5953;52.372;9.918;2024-01-10T13:19:25;29.17;;;15.93;;
11791;SDS011;5953;52.372;9.918;2024-01-10T13:21:53;28.70;;;13.77;;
11791;SDS011;5953;52.372;9.918;2024-01-10T13:24:21;28.17;;;16.30;;
11791;SDS011;5953;52.372;9.918;2024-01-10T13:26:50;21.40;;;11.67;;
11791;SDS011;5953;52.372;9.918;2024-01-10T13:29:18;16.03;;;6.83;;
11791;SDS011;5953;52.372;9.918;2024-01-10T13:31:46;24.13;;;13.63;;
11791;SDS011;5953;52.372;9.918;2024-01-10T13:34:16;25.87;;;11.60;;
11791;SDS011;5953;52.372;9.918;2024-01-10T13:36:44;26.77;;;15.07;;
11791;SDS011;5953;52.372;9.918;2024-01-10T13:39:11;32.93;;;15.73;;
11791;SDS011;5953;52.372;9.918;2024-01-10T13:41:41;28.80;;;15.40;;
11791;SDS011;5953;52.372;9.918;2024-01-10T13:44:11;29.43;;;15.23;;
11791;SDS011;5953;52.372;9.918;2024-01-10T13:46:39;18.30;;;9.23;;
11791;SDS011;5953;52.372;9.918;2024-01-10T13:49:07;27.70;;;16.00;;
11791;SDS011;5953;52.372;9.918;2024-01-10T13:51:35;20.67;;;10.77;;
11791;SDS011;5953;52.372;9.918;2024-01-10T13:54:07;30.90;;;14.43;;
11791;SDS011;5953;52.372;9.918;2024-01-10T13:56:36;29.10;;;13.77;;
11791;SDS011;5953;52.372;9.918;2024-01-10T13:59:06;19.70;;;8.23;;
11791;SDS011;5953;52.372;9.918;2024-01-10T14:01:37;17.13;;;9.93;;
11791;SDS011;5953;52.372;9.918;2024-01-10T14:04:05;23.67;;;11.87;;
11791;SDS011;5953;52.372;9.918;2024-01-10T14:06:33;24.23;;;13.80;;
11791;SDS011;5953;52.372;9.918;2024-01-10T14:09:03;26.83;;;15.70;;
11791;SDS011;5953;52.372;9.918;2024-01-10T14:11:31;30.17;;;17.77;;
11791;SDS011;5953;52.372;9.918;2024-01-10T14:14:01;21.73;;;12.53;;
11791;SDS011;5953;52.372;9.918;2024-01-10T14:16:29;32.37;;;16.77;;
11791;SDS011;5953;52.372;9.918;2024-01-10T14:18:58;16.87;;;7.20;;
11791;SDS011;5953;52.372;9.918;2024-01-10T14:21:28;25.80;;;12.93;;
11791;SDS011;5953;52.372;9.918;2024-01-10T14:23:57;19.50;;;11.87;;
11791;SDS011;5953;52.372;9.918;2024-01-10T14:26:26;19.80;;;10.10;;
11791;SDS011;5953;52.372;9.918;2024-01-10T14:28:54;17.43;;;8.60;;
11791;SDS011;5953;52.372;9.918;2024-01-10T14:31:23;25.27;;;13.53;;
11791;SDS011;5953;52.372;9.918;2024-01-10T14:34:10;17.97;;;7.17;;
11791;SDS011;5953;52.372;9.918;2024-01-10T14:36:38;26.77;;;12.57;;
11791;SDS011;5953;52.372;9.918;2024-01-10T14:39:06;22.27;;;9.80;;
11791;SDS011;5953;52.372;9.918;2024-01-10T14:41:34;23.10;;;9.73;;
11791;SDS011;5953;52.372;9.918;2024-01-10T14:44:03;23.23;;;12.17;;
11791;SDS011;5953;52.372;9.918;2024-01-10T14:46:31;22.27;;;9.87;;
11791;SDS011;5953;52.372;9.918;2024-01-10T14:48:59;23.20;;;10.73;;
11791;SDS011;5953;52.372;9.918;2024-01-10T14:51:28;20.77;;;11.67;;
11791;SDS011;5953;52.372;9.918;2024-01-10T14:53:56;21.37;;;11.17;;
11791;SDS011;5953;52.372;9.918;2024-01-10T14:56:24;21.47;;;9.60;;